Cold Spring, Nevada
Current Conditions -  °F | °C
As of 1:56 PM on Monday 26 Jan 2015 (Local Time) from KNFL Reporting Station
Overcast Overcast  
Wind Chill: 53°   Ceiling: 22000
Heat Index: 53°   Visibility: 10mi
Dew Point: 27°   Wind: 5mph
Humidity: 37%   Direction: 60°ENE
Pressure: 30.1"   Gusts: NA
Location:  39.5809°N, 118.333°W
Report Text: KNFL 262156Z 06004KT 10SM SCT150 BKN220 OVC280 12/M03 A3010 RMK AO2 SLP160 T01171028
Loading
Personal Weather Stations






























Interactive Weather Map New forecast layout! Learn more

10-Day Weather Forecast

Advertisements
Track Severe Weather on mobile